sensor_id;sensor_type;location;lat;lon;timestamp;P1;durP1;ratioP1;P2;durP2;ratioP2
45863;SDS011;31579;52.354;16.974;2023-05-31T00:00:06;6.60;;;1.70;;
45863;SDS011;31579;52.354;16.974;2023-05-31T00:05:06;6.60;;;1.70;;
45863;SDS011;31579;52.354;16.974;2023-05-31T00:10:09;10.30;;;2.50;;
45863;SDS011;31579;52.354;16.974;2023-05-31T00:15:05;10.30;;;2.50;;
45863;SDS011;31579;52.354;16.974;2023-05-31T00:20:05;8.70;;;2.00;;
45863;SDS011;31579;52.354;16.974;2023-05-31T00:25:05;8.70;;;2.00;;
45863;SDS011;31579;52.354;16.974;2023-05-31T00:30:06;7.00;;;2.00;;
45863;SDS011;31579;52.354;16.974;2023-05-31T00:35:05;7.00;;;2.00;;
45863;SDS011;31579;52.354;16.974;2023-05-31T00:40:05;8.50;;;2.10;;
45863;SDS011;31579;52.354;16.974;2023-05-31T00:45:05;8.50;;;2.10;;
45863;SDS011;31579;52.354;16.974;2023-05-31T00:45:18;8.50;;;2.10;;
45863;SDS011;31579;52.354;16.974;2023-05-31T00:50:16;6.80;;;1.90;;
45863;SDS011;31579;52.354;16.974;2023-05-31T00:55:16;6.80;;;1.90;;
45863;SDS011;31579;52.354;16.974;2023-05-31T01:00:16;8.00;;;2.20;;
45863;SDS011;31579;52.354;16.974;2023-05-31T01:05:16;8.00;;;2.20;;
45863;SDS011;31579;52.354;16.974;2023-05-31T01:10:16;5.50;;;2.10;;
45863;SDS011;31579;52.354;16.974;2023-05-31T01:15:19;5.50;;;2.10;;
45863;SDS011;31579;52.354;16.974;2023-05-31T01:20:17;6.10;;;1.90;;
45863;SDS011;31579;52.354;16.974;2023-05-31T01:25:22;6.10;;;1.90;;
45863;SDS011;31579;52.354;16.974;2023-05-31T01:30:16;4.90;;;1.80;;
45863;SDS011;31579;52.354;16.974;2023-05-31T01:35:17;4.90;;;1.80;;
45863;SDS011;31579;52.354;16.974;2023-05-31T01:40:16;5.50;;;1.80;;
45863;SDS011;31579;52.354;16.974;2023-05-31T01:45:16;5.50;;;1.80;;
45863;SDS011;31579;52.354;16.974;2023-05-31T01:50:16;5.50;;;2.00;;
45863;SDS011;31579;52.354;16.974;2023-05-31T01:55:16;5.50;;;2.00;;
45863;SDS011;31579;52.354;16.974;2023-05-31T02:00:16;4.60;;;1.90;;
45863;SDS011;31579;52.354;16.974;2023-05-31T02:05:16;4.60;;;1.90;;
45863;SDS011;31579;52.354;16.974;2023-05-31T02:10:16;8.20;;;1.90;;
45863;SDS011;31579;52.354;16.974;2023-05-31T02:15:16;8.20;;;1.90;;
45863;SDS011;31579;52.354;16.974;2023-05-31T02:20:17;8.60;;;2.70;;
45863;SDS011;31579;52.354;16.974;2023-05-31T02:25:16;8.60;;;2.70;;
45863;SDS011;31579;52.354;16.974;2023-05-31T02:30:17;7.60;;;2.70;;
45863;SDS011;31579;52.354;16.974;2023-05-31T02:35:16;7.60;;;2.70;;
45863;SDS011;31579;52.354;16.974;2023-05-31T02:40:16;7.70;;;2.70;;
45863;SDS011;31579;52.354;16.974;2023-05-31T02:45:16;7.70;;;2.70;;
45863;SDS011;31579;52.354;16.974;2023-05-31T02:54:03;7.80;;;2.80;;
45863;SDS011;31579;52.354;16.974;2023-05-31T02:59:03;8.60;;;3.10;;
45863;SDS011;31579;52.354;16.974;2023-05-31T03:04:03;8.60;;;3.10;;
45863;SDS011;31579;52.354;16.974;2023-05-31T03:09:03;8.90;;;2.80;;
45863;SDS011;31579;52.354;16.974;2023-05-31T03:14:03;8.90;;;2.80;;
45863;SDS011;31579;52.354;16.974;2023-05-31T03:19:05;10.00;;;2.90;;
45863;SDS011;31579;52.354;16.974;2023-05-31T03:24:04;10.00;;;2.90;;
45863;SDS011;31579;52.354;16.974;2023-05-31T03:29:03;9.40;;;3.10;;
45863;SDS011;31579;52.354;16.974;2023-05-31T03:34:03;9.40;;;3.10;;
45863;SDS011;31579;52.354;16.974;2023-05-31T03:38:22;10.30;;;3.30;;
45863;SDS011;31579;52.354;16.974;2023-05-31T03:43:21;10.30;;;3.30;;
45863;SDS011;31579;52.354;16.974;2023-05-31T03:48:21;9.50;;;3.00;;
45863;SDS011;31579;52.354;16.974;2023-05-31T03:53:21;9.50;;;3.00;;
45863;SDS011;31579;52.354;16.974;2023-05-31T03:58:21;10.30;;;3.10;;
45863;SDS011;31579;52.354;16.974;2023-05-31T04:03:21;10.30;;;3.10;;
45863;SDS011;31579;52.354;16.974;2023-05-31T04:08:21;13.20;;;4.10;;
45863;SDS011;31579;52.354;16.974;2023-05-31T04:13:21;13.20;;;4.10;;
45863;SDS011;31579;52.354;16.974;2023-05-31T04:18:21;11.10;;;3.50;;
45863;SDS011;31579;52.354;16.974;2023-05-31T04:23:21;11.10;;;3.50;;
45863;SDS011;31579;52.354;16.974;2023-05-31T04:28:21;10.30;;;4.50;;
45863;SDS011;31579;52.354;16.974;2023-05-31T04:33:21;10.30;;;4.50;;
45863;SDS011;31579;52.354;16.974;2023-05-31T04:38:21;13.50;;;3.70;;
45863;SDS011;31579;52.354;16.974;2023-05-31T04:43:21;13.50;;;3.70;;
45863;SDS011;31579;52.354;16.974;2023-05-31T04:48:21;12.30;;;4.50;;
45863;SDS011;31579;52.354;16.974;2023-05-31T04:53:21;12.30;;;4.50;;
45863;SDS011;31579;52.354;16.974;2023-05-31T04:58:21;11.80;;;3.80;;
45863;SDS011;31579;52.354;16.974;2023-05-31T05:03:21;11.80;;;3.80;;
45863;SDS011;31579;52.354;16.974;2023-05-31T05:08:21;12.20;;;3.60;;
45863;SDS011;31579;52.354;16.974;2023-05-31T05:13:21;12.20;;;3.60;;
45863;SDS011;31579;52.354;16.974;2023-05-31T05:19:28;39.40;;;12.80;;
45863;SDS011;31579;52.354;16.974;2023-05-31T05:24:28;39.40;;;12.80;;
45863;SDS011;31579;52.354;16.974;2023-05-31T05:29:28;8.70;;;3.40;;
45863;SDS011;31579;52.354;16.974;2023-05-31T05:34:28;8.70;;;3.40;;
45863;SDS011;31579;52.354;16.974;2023-05-31T05:39:28;8.20;;;3.00;;
45863;SDS011;31579;52.354;16.974;2023-05-31T05:44:30;8.20;;;3.00;;
45863;SDS011;31579;52.354;16.974;2023-05-31T05:49:28;8.60;;;3.00;;
45863;SDS011;31579;52.354;16.974;2023-05-31T05:54:28;8.60;;;3.00;;
45863;SDS011;31579;52.354;16.974;2023-05-31T05:59:28;8.80;;;3.00;;
45863;SDS011;31579;52.354;16.974;2023-05-31T06:04:28;8.80;;;3.00;;
45863;SDS011;31579;52.354;16.974;2023-05-31T06:09:28;9.90;;;3.60;;
45863;SDS011;31579;52.354;16.974;2023-05-31T06:14:28;9.90;;;3.60;;
45863;SDS011;31579;52.354;16.974;2023-05-31T06:19:39;7.00;;;3.00;;
45863;SDS011;31579;52.354;16.974;2023-05-31T06:24:37;7.00;;;3.00;;
45863;SDS011;31579;52.354;16.974;2023-05-31T06:29:37;7.60;;;2.90;;
45863;SDS011;31579;52.354;16.974;2023-05-31T06:34:37;7.60;;;2.90;;
45863;SDS011;31579;52.354;16.974;2023-05-31T06:39:37;9.50;;;3.10;;
45863;SDS011;31579;52.354;16.974;2023-05-31T06:44:37;9.50;;;3.10;;
45863;SDS011;31579;52.354;16.974;2023-05-31T06:49:38;11.10;;;3.10;;
45863;SDS011;31579;52.354;16.974;2023-05-31T06:54:37;11.10;;;3.10;;
45863;SDS011;31579;52.354;16.974;2023-05-31T06:59:37;8.90;;;2.70;;
45863;SDS011;31579;52.354;16.974;2023-05-31T07:04:37;8.90;;;2.70;;
45863;SDS011;31579;52.354;16.974;2023-05-31T07:09:37;7.90;;;2.60;;
45863;SDS011;31579;52.354;16.974;2023-05-31T07:14:38;7.90;;;2.60;;
45863;SDS011;31579;52.354;16.974;2023-05-31T07:24:37;8.80;;;2.50;;
45863;SDS011;31579;52.354;16.974;2023-05-31T07:24:47;8.80;;;2.50;;
45863;SDS011;31579;52.354;16.974;2023-05-31T07:29:45;7.60;;;2.10;;
45863;SDS011;31579;52.354;16.974;2023-05-31T07:34:45;7.60;;;2.10;;
45863;SDS011;31579;52.354;16.974;2023-05-31T07:39:56;7.60;;;2.20;;
45863;SDS011;31579;52.354;16.974;2023-05-31T07:44:55;7.60;;;2.20;;
45863;SDS011;31579;52.354;16.974;2023-05-31T07:49:55;5.70;;;1.80;;
45863;SDS011;31579;52.354;16.974;2023-05-31T07:54:55;5.70;;;1.80;;
45863;SDS011;31579;52.354;16.974;2023-05-31T08:02:06;4.00;;;1.60;;
45863;SDS011;31579;52.354;16.974;2023-05-31T08:07:06;4.00;;;1.60;;
45863;SDS011;31579;52.354;16.974;2023-05-31T08:12:06;6.10;;;1.80;;
45863;SDS011;31579;52.354;16.974;2023-05-31T08:17:06;6.10;;;1.80;;
45863;SDS011;31579;52.354;16.974;2023-05-31T08:22:06;4.50;;;1.30;;
45863;SDS011;31579;52.354;16.974;2023-05-31T08:27:09;4.50;;;1.30;;
45863;SDS011;31579;52.354;16.974;2023-05-31T08:32:06;6.10;;;2.00;;
45863;SDS011;31579;52.354;16.974;2023-05-31T08:37:06;6.10;;;2.00;;
45863;SDS011;31579;52.354;16.974;2023-05-31T08:42:09;7.20;;;1.90;;
45863;SDS011;31579;52.354;16.974;2023-05-31T08:52:06;7.20;;;2.10;;
45863;SDS011;31579;52.354;16.974;2023-05-31T08:57:06;7.20;;;2.10;;
45863;SDS011;31579;52.354;16.974;2023-05-31T09:02:06;6.50;;;1.90;;
45863;SDS011;31579;52.354;16.974;2023-05-31T09:07:06;6.50;;;1.90;;
45863;SDS011;31579;52.354;16.974;2023-05-31T09:12:06;6.00;;;2.10;;
45863;SDS011;31579;52.354;16.974;2023-05-31T09:17:06;6.00;;;2.10;;
45863;SDS011;31579;52.354;16.974;2023-05-31T09:22:06;8.50;;;2.00;;
45863;SDS011;31579;52.354;16.974;2023-05-31T09:27:06;8.50;;;2.00;;
45863;SDS011;31579;52.354;16.974;2023-05-31T09:32:07;7.20;;;2.00;;
45863;SDS011;31579;52.354;16.974;2023-05-31T09:37:06;7.20;;;2.00;;
45863;SDS011;31579;52.354;16.974;2023-05-31T09:42:11;5.20;;;2.10;;
45863;SDS011;31579;52.354;16.974;2023-05-31T09:47:07;5.20;;;2.10;;
45863;SDS011;31579;52.354;16.974;2023-05-31T09:52:06;7.50;;;2.10;;
45863;SDS011;31579;52.354;16.974;2023-05-31T09:57:06;7.50;;;2.10;;
45863;SDS011;31579;52.354;16.974;2023-05-31T10:02:06;6.60;;;2.50;;
45863;SDS011;31579;52.354;16.974;2023-05-31T10:07:06;6.60;;;2.50;;
45863;SDS011;31579;52.354;16.974;2023-05-31T10:12:06;8.40;;;2.00;;
45863;SDS011;31579;52.354;16.974;2023-05-31T10:17:06;8.40;;;2.00;;
45863;SDS011;31579;52.354;16.974;2023-05-31T10:22:06;7.10;;;2.40;;
45863;SDS011;31579;52.354;16.974;2023-05-31T10:37:06;6.90;;;2.10;;
45863;SDS011;31579;52.354;16.974;2023-05-31T10:47:06;8.70;;;2.10;;
45863;SDS011;31579;52.354;16.974;2023-05-31T10:52:06;7.70;;;2.30;;
45863;SDS011;31579;52.354;16.974;2023-05-31T10:57:06;7.70;;;2.30;;
45863;SDS011;31579;52.354;16.974;2023-05-31T11:02:06;6.20;;;1.80;;
45863;SDS011;31579;52.354;16.974;2023-05-31T11:12:06;5.60;;;2.00;;
45863;SDS011;31579;52.354;16.974;2023-05-31T11:22:06;6.50;;;1.80;;
45863;SDS011;31579;52.354;16.974;2023-05-31T11:27:10;6.50;;;1.80;;
45863;SDS011;31579;52.354;16.974;2023-05-31T11:30:44;6.90;;;2.20;;
45863;SDS011;31579;52.354;16.974;2023-05-31T11:35:42;6.90;;;2.20;;
45863;SDS011;31579;52.354;16.974;2023-05-31T11:40:42;5.00;;;1.90;;
45863;SDS011;31579;52.354;16.974;2023-05-31T11:45:43;5.00;;;1.90;;
45863;SDS011;31579;52.354;16.974;2023-05-31T11:50:42;7.60;;;2.10;;
45863;SDS011;31579;52.354;16.974;2023-05-31T12:00:45;5.00;;;1.60;;
45863;SDS011;31579;52.354;16.974;2023-05-31T12:05:45;5.00;;;1.60;;
45863;SDS011;31579;52.354;16.974;2023-05-31T12:10:42;3.10;;;1.60;;
45863;SDS011;31579;52.354;16.974;2023-05-31T12:15:49;3.10;;;1.60;;
45863;SDS011;31579;52.354;16.974;2023-05-31T12:20:42;3.70;;;1.70;;
45863;SDS011;31579;52.354;16.974;2023-05-31T12:25:45;3.70;;;1.70;;
45863;SDS011;31579;52.354;16.974;2023-05-31T12:28:40;7.40;;;1.60;;
45863;SDS011;31579;52.354;16.974;2023-05-31T12:33:38;7.40;;;1.60;;
45863;SDS011;31579;52.354;16.974;2023-05-31T12:38:38;4.60;;;1.70;;
45863;SDS011;31579;52.354;16.974;2023-05-31T12:43:42;4.60;;;1.70;;
45863;SDS011;31579;52.354;16.974;2023-05-31T12:48:38;5.10;;;1.60;;
45863;SDS011;31579;52.354;16.974;2023-05-31T12:53:38;5.10;;;1.60;;
45863;SDS011;31579;52.354;16.974;2023-05-31T12:58:38;4.00;;;1.50;;
45863;SDS011;31579;52.354;16.974;2023-05-31T13:03:39;4.00;;;1.50;;
45863;SDS011;31579;52.354;16.974;2023-05-31T13:11:02;4.20;;;1.80;;
45863;SDS011;31579;52.354;16.974;2023-05-31T13:16:02;4.20;;;1.80;;
45863;SDS011;31579;52.354;16.974;2023-05-31T13:21:02;4.00;;;1.70;;
45863;SDS011;31579;52.354;16.974;2023-05-31T13:26:02;4.00;;;1.70;;
45863;SDS011;31579;52.354;16.974;2023-05-31T13:31:13;3.10;;;1.60;;
45863;SDS011;31579;52.354;16.974;2023-05-31T13:36:12;3.10;;;1.60;;
45863;SDS011;31579;52.354;16.974;2023-05-31T13:41:12;3.30;;;1.40;;
45863;SDS011;31579;52.354;16.974;2023-05-31T13:46:12;3.30;;;1.40;;
45863;SDS011;31579;52.354;16.974;2023-05-31T13:51:12;4.20;;;1.70;;
45863;SDS011;31579;52.354;16.974;2023-05-31T13:56:12;4.20;;;1.70;;
45863;SDS011;31579;52.354;16.974;2023-05-31T14:01:15;4.60;;;1.60;;
45863;SDS011;31579;52.354;16.974;2023-05-31T14:06:12;4.60;;;1.60;;
45863;SDS011;31579;52.354;16.974;2023-05-31T14:11:12;3.40;;;1.40;;
45863;SDS011;31579;52.354;16.974;2023-05-31T14:16:12;3.40;;;1.40;;
45863;SDS011;31579;52.354;16.974;2023-05-31T14:21:12;4.20;;;1.50;;
45863;SDS011;31579;52.354;16.974;2023-05-31T14:26:12;4.20;;;1.50;;
45863;SDS011;31579;52.354;16.974;2023-05-31T14:31:12;4.70;;;1.80;;
45863;SDS011;31579;52.354;16.974;2023-05-31T14:40:16;2.70;;;1.60;;
45863;SDS011;31579;52.354;16.974;2023-05-31T14:45:16;2.70;;;1.60;;
45863;SDS011;31579;52.354;16.974;2023-05-31T14:50:16;3.20;;;1.70;;
45863;SDS011;31579;52.354;16.974;2023-05-31T14:55:16;3.20;;;1.70;;
45863;SDS011;31579;52.354;16.974;2023-05-31T15:00:16;3.50;;;1.70;;
45863;SDS011;31579;52.354;16.974;2023-05-31T15:09:13;5.30;;;1.80;;
45863;SDS011;31579;52.354;16.974;2023-05-31T15:14:13;5.30;;;1.80;;
45863;SDS011;31579;52.354;16.974;2023-05-31T15:19:13;4.20;;;1.90;;
45863;SDS011;31579;52.354;16.974;2023-05-31T15:24:13;4.20;;;1.90;;
45863;SDS011;31579;52.354;16.974;2023-05-31T15:29:13;3.40;;;1.50;;
45863;SDS011;31579;52.354;16.974;2023-05-31T15:34:16;3.40;;;1.50;;
45863;SDS011;31579;52.354;16.974;2023-05-31T15:39:13;3.60;;;1.50;;
45863;SDS011;31579;52.354;16.974;2023-05-31T15:44:13;3.60;;;1.50;;
45863;SDS011;31579;52.354;16.974;2023-05-31T15:49:14;2.70;;;1.60;;
45863;SDS011;31579;52.354;16.974;2023-05-31T15:54:13;2.70;;;1.60;;
45863;SDS011;31579;52.354;16.974;2023-05-31T15:59:13;4.60;;;1.50;;
45863;SDS011;31579;52.354;16.974;2023-05-31T16:04:13;4.60;;;1.50;;
45863;SDS011;31579;52.354;16.974;2023-05-31T16:09:13;4.00;;;1.50;;
45863;SDS011;31579;52.354;16.974;2023-05-31T16:14:13;4.00;;;1.50;;
45863;SDS011;31579;52.354;16.974;2023-05-31T16:21:57;4.00;;;1.50;;
45863;SDS011;31579;52.354;16.974;2023-05-31T16:26:57;4.00;;;1.50;;
45863;SDS011;31579;52.354;16.974;2023-05-31T16:31:57;2.40;;;1.30;;
45863;SDS011;31579;52.354;16.974;2023-05-31T16:36:57;2.40;;;1.30;;
45863;SDS011;31579;52.354;16.974;2023-05-31T16:41:57;2.10;;;1.50;;
45863;SDS011;31579;52.354;16.974;2023-05-31T16:46:58;2.10;;;1.50;;
45863;SDS011;31579;52.354;16.974;2023-05-31T16:51:57;3.90;;;1.60;;
45863;SDS011;31579;52.354;16.974;2023-05-31T16:56:57;3.90;;;1.60;;
45863;SDS011;31579;52.354;16.974;2023-05-31T17:01:57;3.70;;;1.50;;
45863;SDS011;31579;52.354;16.974;2023-05-31T17:06:57;3.70;;;1.50;;
45863;SDS011;31579;52.354;16.974;2023-05-31T17:11:57;3.90;;;1.30;;
45863;SDS011;31579;52.354;16.974;2023-05-31T17:17:07;3.90;;;1.30;;
45863;SDS011;31579;52.354;16.974;2023-05-31T17:22:05;3.20;;;1.60;;
45863;SDS011;31579;52.354;16.974;2023-05-31T17:27:05;3.20;;;1.60;;
45863;SDS011;31579;52.354;16.974;2023-05-31T17:32:05;3.80;;;1.70;;
45863;SDS011;31579;52.354;16.974;2023-05-31T17:37:05;3.80;;;1.70;;
45863;SDS011;31579;52.354;16.974;2023-05-31T17:42:05;4.20;;;1.40;;
45863;SDS011;31579;52.354;16.974;2023-05-31T17:47:06;4.20;;;1.40;;
45863;SDS011;31579;52.354;16.974;2023-05-31T17:52:05;3.40;;;1.40;;
45863;SDS011;31579;52.354;16.974;2023-05-31T17:57:05;3.40;;;1.40;;
45863;SDS011;31579;52.354;16.974;2023-05-31T18:02:06;3.60;;;1.70;;
45863;SDS011;31579;52.354;16.974;2023-05-31T18:07:05;3.60;;;1.70;;
45863;SDS011;31579;52.354;16.974;2023-05-31T18:12:05;4.70;;;1.40;;
45863;SDS011;31579;52.354;16.974;2023-05-31T18:17:05;4.70;;;1.40;;
45863;SDS011;31579;52.354;16.974;2023-05-31T18:22:05;5.10;;;1.50;;
45863;SDS011;31579;52.354;16.974;2023-05-31T18:32:05;4.70;;;1.40;;
45863;SDS011;31579;52.354;16.974;2023-05-31T18:37:06;4.70;;;1.40;;
45863;SDS011;31579;52.354;16.974;2023-05-31T18:42:05;5.20;;;1.50;;
45863;SDS011;31579;52.354;16.974;2023-05-31T18:47:06;5.20;;;1.50;;
45863;SDS011;31579;52.354;16.974;2023-05-31T18:52:05;4.60;;;1.60;;
45863;SDS011;31579;52.354;16.974;2023-05-31T18:57:05;4.60;;;1.60;;
45863;SDS011;31579;52.354;16.974;2023-05-31T19:02:06;6.80;;;2.10;;
45863;SDS011;31579;52.354;16.974;2023-05-31T19:07:06;6.80;;;2.10;;
45863;SDS011;31579;52.354;16.974;2023-05-31T19:12:06;8.60;;;2.20;;
45863;SDS011;31579;52.354;16.974;2023-05-31T19:17:05;8.60;;;2.20;;
45863;SDS011;31579;52.354;16.974;2023-05-31T19:22:05;4.40;;;1.70;;
45863;SDS011;31579;52.354;16.974;2023-05-31T19:27:05;4.40;;;1.70;;
45863;SDS011;31579;52.354;16.974;2023-05-31T19:32:05;5.40;;;2.20;;
45863;SDS011;31579;52.354;16.974;2023-05-31T19:37:05;5.40;;;2.20;;
45863;SDS011;31579;52.354;16.974;2023-05-31T19:42:05;7.90;;;2.20;;
45863;SDS011;31579;52.354;16.974;2023-05-31T19:47:05;7.90;;;2.20;;
45863;SDS011;31579;52.354;16.974;2023-05-31T19:52:05;10.10;;;3.90;;
45863;SDS011;31579;52.354;16.974;2023-05-31T19:56:07;10.10;;;3.90;;
45863;SDS011;31579;52.354;16.974;2023-05-31T20:01:05;8.70;;;2.70;;
45863;SDS011;31579;52.354;16.974;2023-05-31T20:06:05;8.70;;;2.70;;
45863;SDS011;31579;52.354;16.974;2023-05-31T20:11:05;14.20;;;4.70;;
45863;SDS011;31579;52.354;16.974;2023-05-31T20:16:05;14.20;;;4.70;;
45863;SDS011;31579;52.354;16.974;2023-05-31T20:21:05;12.50;;;3.10;;
45863;SDS011;31579;52.354;16.974;2023-05-31T20:26:07;12.50;;;3.10;;
45863;SDS011;31579;52.354;16.974;2023-05-31T20:31:05;11.30;;;3.30;;
45863;SDS011;31579;52.354;16.974;2023-05-31T20:36:05;11.30;;;3.30;;
45863;SDS011;31579;52.354;16.974;2023-05-31T20:41:05;11.70;;;3.50;;
45863;SDS011;31579;52.354;16.974;2023-05-31T20:46:16;11.70;;;3.50;;
45863;SDS011;31579;52.354;16.974;2023-05-31T20:51:14;11.80;;;3.50;;
45863;SDS011;31579;52.354;16.974;2023-05-31T20:56:14;11.80;;;3.50;;
45863;SDS011;31579;52.354;16.974;2023-05-31T21:01:14;11.00;;;3.50;;
45863;SDS011;31579;52.354;16.974;2023-05-31T21:06:14;11.00;;;3.50;;
45863;SDS011;31579;52.354;16.974;2023-05-31T21:11:14;13.80;;;3.90;;
45863;SDS011;31579;52.354;16.974;2023-05-31T21:13:05;13.80;;;3.90;;
45863;SDS011;31579;52.354;16.974;2023-05-31T21:18:03;12.80;;;3.90;;
45863;SDS011;31579;52.354;16.974;2023-05-31T21:23:03;12.80;;;3.90;;
45863;SDS011;31579;52.354;16.974;2023-05-31T21:28:03;12.10;;;4.00;;
45863;SDS011;31579;52.354;16.974;2023-05-31T21:33:03;12.10;;;4.00;;
45863;SDS011;31579;52.354;16.974;2023-05-31T21:38:03;10.40;;;3.80;;
45863;SDS011;31579;52.354;16.974;2023-05-31T21:43:04;10.40;;;3.80;;
45863;SDS011;31579;52.354;16.974;2023-05-31T21:48:03;10.80;;;4.00;;
45863;SDS011;31579;52.354;16.974;2023-05-31T21:53:03;10.80;;;4.00;;
45863;SDS011;31579;52.354;16.974;2023-05-31T21:58:03;11.70;;;4.20;;
45863;SDS011;31579;52.354;16.974;2023-05-31T22:03:03;11.70;;;4.20;;
45863;SDS011;31579;52.354;16.974;2023-05-31T22:08:03;15.50;;;6.40;;
45863;SDS011;31579;52.354;16.974;2023-05-31T22:13:03;15.50;;;6.40;;
45863;SDS011;31579;52.354;16.974;2023-05-31T22:18:03;11.00;;;4.60;;
45863;SDS011;31579;52.354;16.974;2023-05-31T22:23:03;11.00;;;4.60;;
45863;SDS011;31579;52.354;16.974;2023-05-31T22:28:03;11.80;;;4.60;;
45863;SDS011;31579;52.354;16.974;2023-05-31T22:33:03;11.80;;;4.60;;
45863;SDS011;31579;52.354;16.974;2023-05-31T22:38:03;12.00;;;4.40;;
45863;SDS011;31579;52.354;16.974;2023-05-31T22:43:03;12.00;;;4.40;;
45863;SDS011;31579;52.354;16.974;2023-05-31T22:48:03;13.50;;;4.80;;
45863;SDS011;31579;52.354;16.974;2023-05-31T22:49:12;13.50;;;4.80;;
45863;SDS011;31579;52.354;16.974;2023-05-31T22:54:10;13.50;;;4.80;;
45863;SDS011;31579;52.354;16.974;2023-05-31T22:59:10;8.20;;;3.60;;
45863;SDS011;31579;52.354;16.974;2023-05-31T23:04:14;8.20;;;3.60;;
45863;SDS011;31579;52.354;16.974;2023-05-31T23:09:10;11.00;;;4.30;;
45863;SDS011;31579;52.354;16.974;2023-05-31T23:14:10;11.00;;;4.30;;
45863;SDS011;31579;52.354;16.974;2023-05-31T23:23:04;15.00;;;5.10;;
45863;SDS011;31579;52.354;16.974;2023-05-31T23:23:40;15.00;;;5.10;;
45863;SDS011;31579;52.354;16.974;2023-05-31T23:28:38;13.30;;;4.90;;
45863;SDS011;31579;52.354;16.974;2023-05-31T23:35:18;13.30;;;4.90;;
45863;SDS011;31579;52.354;16.974;2023-05-31T23:40:19;10.90;;;3.90;;
45863;SDS011;31579;52.354;16.974;2023-05-31T23:45:18;10.90;;;3.90;;
45863;SDS011;31579;52.354;16.974;2023-05-31T23:50:19;12.70;;;4.90;;
45863;SDS011;31579;52.354;16.974;2023-05-31T23:55:18;12.70;;;4.90;;
